Time;durP1;ratioP1;P1;durP2;ratioP2;P2;SDS_P1;SDS_P2;PMS_P1;PMS_P2;Temp;Humidity;BMP_temperature;BMP_pressure;BME280_temperature;BME280_humidity;BME280_pressure;Samples;Min_cycle;Max_cycle;Signal;HPM_P1;HPM_P2
2023/08/28 00:01:53;;;;;;;9.57;2.70;;;15.30;99.90;;;;;;5046983;28;20483;-66
2023/08/28 00:04:21;;;;;;;7.70;3.00;;;15.10;99.90;;;;;;5045335;28;20538;-66
2023/08/28 00:06:49;;;;;;;9.17;2.77;;;15.00;99.90;;;;;;5046722;28;20467;-66
2023/08/28 00:09:17;;;;;;;7.90;2.83;;;15.00;99.90;;;;;;5046042;28;20516;-66
2023/08/28 00:11:45;;;;;;;7.67;2.47;;;14.90;99.90;;;;;;5046245;28;20504;-66
2023/08/28 00:14:13;;;;;;;8.10;3.23;;;14.80;99.90;;;;;;5046252;28;20452;-66
2023/08/28 00:16:42;;;;;;;8.70;3.30;;;14.90;99.90;;;;;;5046437;28;20488;-65
2023/08/28 00:19:10;;;;;;;9.20;3.03;;;14.90;99.90;;;;;;5048473;28;20438;-66
2023/08/28 00:21:38;;;;;;;8.60;2.60;;;14.90;99.90;;;;;;5049029;28;20447;-64
2023/08/28 00:24:07;;;;;;;8.10;2.97;;;14.90;99.90;;;;;;5049519;28;20445;-65
2023/08/28 00:26:35;;;;;;;9.00;2.87;;;14.90;99.90;;;;;;5050469;28;20515;-67
2023/08/28 00:29:03;;;;;;;7.90;2.87;;;15.00;99.90;;;;;;5049613;28;20449;-66
2023/08/28 00:31:31;;;;;;;9.67;3.63;;;15.00;99.90;;;;;;5046331;28;20486;-67
2023/08/28 00:34:00;;;;;;;12.57;3.40;;;15.00;99.90;;;;;;5048847;28;20481;-66
2023/08/28 00:36:28;;;;;;;9.03;2.83;;;14.80;99.90;;;;;;5049840;28;20902;-67
2023/08/28 00:38:56;;;;;;;7.90;2.93;;;14.80;99.90;;;;;;5031465;28;21006;-66
2023/08/28 00:41:24;;;;;;;8.90;3.40;;;14.80;99.90;;;;;;5029979;28;20939;-67
2023/08/28 00:43:52;;;;;;;10.30;3.60;;;14.90;99.90;;;;;;5029874;28;20936;-67
2023/08/28 00:46:20;;;;;;;13.07;3.37;;;14.90;99.90;;;;;;5029712;28;20462;-67
2023/08/28 00:48:48;;;;;;;12.27;3.20;;;15.00;99.90;;;;;;5029995;28;20446;-66
2023/08/28 00:51:18;;;;;;;10.23;3.30;;;14.90;99.90;;;;;;5029664;28;20448;-67
2023/08/28 00:53:46;;;;;;;9.77;3.33;;;14.90;99.90;;;;;;5041004;28;20482;-66
2023/08/28 00:56:14;;;;;;;10.00;3.10;;;14.80;99.90;;;;;;5049383;28;20502;-67
2023/08/28 00:58:42;;;;;;;11.50;5.23;;;14.80;99.90;;;;;;5049464;28;20443;-66
2023/08/28 01:01:10;;;;;;;10.47;3.87;;;14.80;99.90;;;;;;5049419;28;20810;-66
2023/08/28 01:03:38;;;;;;;8.53;3.20;;;14.80;99.90;;;;;;5049286;28;20806;-66
2023/08/28 01:06:17;;;;;;;11.83;3.93;;;14.80;99.90;;;;;;5049198;28;20438;-67
2023/08/28 01:08:55;;;;;;;9.90;3.90;;;14.70;99.90;;;;;;5049764;28;20992;-67
2023/08/28 01:11:29;;;;;;;9.57;3.93;;;14.70;99.90;;;;;;5028888;28;20460;-66
2023/08/28 01:14:04;;;;;;;9.80;3.73;;;14.70;99.90;;;;;;5043728;28;20480;-66
2023/08/28 01:16:33;;;;;;;13.90;4.40;;;14.70;99.90;;;;;;5050445;28;20462;-67
2023/08/28 01:19:02;;;;;;;10.07;3.07;;;14.60;99.90;;;;;;5050034;28;20938;-66
2023/08/28 01:21:30;;;;;;;8.67;3.90;;;14.70;99.90;;;;;;5051100;28;20439;-66
2023/08/28 01:24:03;;;;;;;8.53;3.40;;;14.80;99.90;;;;;;5047816;28;20929;-68
2023/08/28 01:26:33;;;;;;;11.60;3.77;;;14.70;99.90;;;;;;5050767;28;20482;-66
2023/08/28 01:29:01;;;;;;;11.93;3.50;;;14.60;99.90;;;;;;5051606;28;20436;-66
2023/08/28 01:31:29;;;;;;;9.63;4.10;;;14.60;99.90;;;;;;5051054;28;20442;-66
2023/08/28 01:33:57;;;;;;;10.97;3.80;;;14.70;99.90;;;;;;5051001;28;20479;-66
2023/08/28 01:36:33;;;;;;;11.70;3.47;;;14.60;99.90;;;;;;5049590;28;20502;-66
2023/08/28 01:39:05;;;;;;;9.10;4.20;;;14.70;99.90;;;;;;5045331;28;20437;-66
2023/08/28 01:41:36;;;;;;;11.17;4.27;;;14.60;99.90;;;;;;5051100;28;20504;-66
2023/08/28 01:44:07;;;;;;;8.60;3.03;;;14.70;99.90;;;;;;5034739;28;20455;-66
2023/08/28 01:46:35;;;;;;;12.80;3.80;;;14.70;99.90;;;;;;5046566;28;20520;-66
2023/08/28 01:49:05;;;;;;;10.30;3.73;;;14.70;99.90;;;;;;5051130;28;20450;-66
2023/08/28 01:51:33;;;;;;;11.33;4.17;;;14.70;99.90;;;;;;5049085;28;20557;-66
2023/08/28 01:54:01;;;;;;;10.93;3.80;;;14.60;99.90;;;;;;5047396;28;20478;-66
2023/08/28 01:56:28;;;;;;;9.67;3.97;;;14.60;99.90;;;;;;5050867;28;20460;-66
2023/08/28 01:58:59;;;;;;;9.27;3.43;;;14.60;99.90;;;;;;5051053;28;21044;-66
2023/08/28 02:01:27;;;;;;;8.80;3.43;;;14.70;99.90;;;;;;5050611;28;20438;-65
2023/08/28 02:03:55;;;;;;;12.13;3.80;;;14.70;99.90;;;;;;5047332;28;20447;-66
2023/08/28 02:06:24;;;;;;;10.00;3.37;;;14.70;99.90;;;;;;5051156;28;20493;-66
2023/08/28 02:08:51;;;;;;;9.97;4.50;;;14.60;99.90;;;;;;5050689;28;20499;-66
2023/08/28 02:11:19;;;;;;;9.33;3.93;;;14.70;99.90;;;;;;5050895;28;20477;-66
2023/08/28 02:13:47;;;;;;;8.60;3.40;;;14.70;99.90;;;;;;5050471;28;20480;-66
2023/08/28 02:16:17;;;;;;;9.73;3.87;;;14.70;99.90;;;;;;5050413;28;20529;-66
2023/08/28 02:18:45;;;;;;;13.20;3.40;;;14.60;99.90;;;;;;5050889;28;20445;-66
2023/08/28 02:21:13;;;;;;;9.63;4.37;;;14.60;99.90;;;;;;5040223;28;20518;-67
2023/08/28 02:23:41;;;;;;;10.40;3.80;;;14.60;99.90;;;;;;5041975;28;20893;-66
2023/08/28 02:26:09;;;;;;;8.70;3.33;;;14.60;99.90;;;;;;5050327;28;20582;-66
2023/08/28 02:28:37;;;;;;;8.40;3.13;;;14.70;99.90;;;;;;5050604;28;20442;-66
2023/08/28 02:31:05;;;;;;;9.03;4.33;;;14.50;99.90;;;;;;5050040;28;21012;-66
2023/08/28 02:33:34;;;;;;;10.43;4.00;;;14.60;99.90;;;;;;5049829;28;20661;-66
2023/08/28 02:36:03;;;;;;;9.50;4.20;;;14.50;99.90;;;;;;5050092;28;20436;-66
2023/08/28 02:38:31;;;;;;;9.30;3.47;;;14.50;99.90;;;;;;5049070;28;20503;-67
2023/08/28 02:41:06;;;;;;;10.77;4.20;;;14.40;99.90;;;;;;5050326;28;20451;-66
2023/08/28 02:43:34;;;;;;;11.33;3.87;;;14.50;99.90;;;;;;5048759;28;20446;-66
2023/08/28 02:46:03;;;;;;;11.53;3.83;;;14.50;99.90;;;;;;5050384;28;20467;-66
2023/08/28 02:48:31;;;;;;;12.37;4.40;;;14.40;99.90;;;;;;5050403;28;20444;-66
2023/08/28 02:51:00;;;;;;;10.03;3.20;;;14.40;99.90;;;;;;5050124;28;20473;-66
2023/08/28 02:53:28;;;;;;;9.40;3.50;;;14.50;99.90;;;;;;5048949;28;20457;-66
2023/08/28 02:56:24;;;;;;;8.40;3.07;;;14.60;99.90;;;;;;5045421;28;20553;-66
2023/08/28 02:58:52;;;;;;;9.10;3.10;;;14.70;99.90;;;;;;5049968;28;20440;-66
2023/08/28 03:01:20;;;;;;;9.30;3.00;;;14.40;99.90;;;;;;5049734;28;21132;-66
2023/08/28 03:03:48;;;;;;;11.13;4.07;;;14.30;99.90;;;;;;5045544;28;20581;-66
2023/08/28 03:06:18;;;;;;;7.83;3.10;;;14.20;99.90;;;;;;5049294;28;20468;-63
2023/08/28 03:08:46;;;;;;;8.73;2.80;;;14.30;99.90;;;;;;5049517;28;20450;-65
2023/08/28 03:11:14;;;;;;;10.93;3.07;;;14.40;99.90;;;;;;5049633;28;20907;-66
2023/08/28 03:13:42;;;;;;;9.50;3.47;;;14.30;99.90;;;;;;5044480;28;20846;-65
2023/08/28 03:16:09;;;;;;;7.70;3.00;;;14.20;99.90;;;;;;5049450;28;20461;-66
2023/08/28 03:18:37;;;;;;;8.40;3.13;;;14.00;99.90;;;;;;5049263;28;20440;-65
2023/08/28 03:21:05;;;;;;;10.90;3.00;;;14.10;99.90;;;;;;5049571;28;20456;-66
2023/08/28 03:23:35;;;;;;;11.00;4.20;;;14.10;99.90;;;;;;5046252;28;20483;-66
2023/08/28 03:26:03;;;;;;;16.80;4.80;;;14.00;99.90;;;;;;5048284;28;21067;-65
2023/08/28 03:28:31;;;;;;;11.40;3.20;;;14.00;99.90;;;;;;5049807;28;20449;-66
2023/08/28 03:30:59;;;;;;;9.00;3.43;;;14.00;99.90;;;;;;5049329;28;20540;-66
2023/08/28 03:33:29;;;;;;;8.50;3.87;;;14.00;99.90;;;;;;5049203;28;20513;-66
2023/08/28 03:35:56;;;;;;;8.70;3.10;;;14.00;99.90;;;;;;5049491;28;20855;-66
2023/08/28 03:38:24;;;;;;;13.93;3.83;;;14.00;99.90;;;;;;5049926;28;20493;-66
2023/08/28 03:40:54;;;;;;;9.93;3.60;;;14.00;99.90;;;;;;5049921;28;20798;-66
2023/08/28 03:43:22;;;;;;;12.33;3.60;;;13.90;99.90;;;;;;5047306;28;20947;-67
2023/08/28 03:45:49;;;;;;;10.77;3.90;;;14.00;99.90;;;;;;5050016;28;20538;-65
2023/08/28 03:48:17;;;;;;;9.70;3.70;;;14.00;99.90;;;;;;5049476;28;20444;-66
2023/08/28 03:50:49;;;;;;;9.70;3.73;;;14.00;99.90;;;;;;5039996;28;20450;-66
2023/08/28 03:53:17;;;;;;;10.83;4.00;;;14.10;99.90;;;;;;5038531;28;20441;-66
2023/08/28 03:55:45;;;;;;;13.43;3.83;;;14.20;99.90;;;;;;5053357;28;20476;-66
2023/08/28 03:58:15;;;;;;;11.30;4.27;;;14.20;99.90;;;;;;5053817;28;20583;-66
2023/08/28 04:00:43;;;;;;;8.90;3.20;;;14.20;99.90;;;;;;5053263;28;20454;-66
2023/08/28 04:03:11;;;;;;;10.43;4.70;;;14.20;99.90;;;;;;5053659;28;20447;-66
2023/08/28 04:05:39;;;;;;;10.20;3.60;;;14.20;99.90;;;;;;5052581;28;20824;-65
2023/08/28 04:08:07;;;;;;;8.40;3.60;;;14.30;99.90;;;;;;5053687;28;20469;-66
2023/08/28 04:10:35;;;;;;;9.80;3.07;;;14.30;99.90;;;;;;5053376;28;20825;-66
2023/08/28 04:13:03;;;;;;;8.87;3.13;;;14.20;99.90;;;;;;5052592;28;20467;-66
2023/08/28 04:15:33;;;;;;;9.00;3.80;;;14.20;99.90;;;;;;5053206;28;21087;-65
2023/08/28 04:18:01;;;;;;;8.47;3.20;;;14.20;99.90;;;;;;5053030;28;20493;-65
2023/08/28 04:20:30;;;;;;;19.40;4.30;;;14.20;99.90;;;;;;5049069;28;20543;-65
2023/08/28 04:22:58;;;;;;;8.53;2.83;;;14.30;99.90;;;;;;5035418;28;20542;-66
2023/08/28 04:25:27;;;;;;;12.20;5.23;;;14.20;99.90;;;;;;5047120;28;20432;-66
2023/08/28 04:27:54;;;;;;;8.53;2.90;;;14.20;99.90;;;;;;5052930;28;20454;-66
2023/08/28 04:30:22;;;;;;;7.60;2.83;;;14.20;99.90;;;;;;5034260;28;20484;-66
2023/08/28 04:32:52;;;;;;;10.03;3.40;;;14.30;99.90;;;;;;5053521;28;20443;-66
2023/08/28 04:35:20;;;;;;;11.90;3.63;;;14.20;99.90;;;;;;5052674;28;20468;-66
2023/08/28 04:37:48;;;;;;;10.33;3.40;;;14.40;99.90;;;;;;5041778;28;21052;-65
2023/08/28 04:40:16;;;;;;;9.30;4.00;;;14.30;99.90;;;;;;5033229;28;20455;-66
2023/08/28 04:42:44;;;;;;;11.30;3.77;;;14.20;99.90;;;;;;5033325;28;20503;-66
2023/08/28 04:45:12;;;;;;;10.43;3.80;;;14.20;99.90;;;;;;5033257;28;20972;-66
2023/08/28 04:47:40;;;;;;;10.53;4.20;;;14.10;99.90;;;;;;5034219;28;20461;-66
2023/08/28 04:50:10;;;;;;;9.73;3.90;;;14.20;99.90;;;;;;5052741;28;20455;-66
2023/08/28 04:52:38;;;;;;;9.37;4.47;;;14.20;99.90;;;;;;5051819;28;20452;-66
2023/08/28 04:55:06;;;;;;;10.73;3.97;;;14.30;99.90;;;;;;5052534;28;20484;-66
2023/08/28 04:57:34;;;;;;;10.70;4.17;;;14.20;99.90;;;;;;5052755;28;20895;-66
2023/08/28 05:00:02;;;;;;;10.60;4.80;;;14.20;99.90;;;;;;5052935;28;20441;-65
2023/08/28 05:02:30;;;;;;;10.30;4.77;;;14.20;99.90;;;;;;5051649;28;20456;-65
2023/08/28 05:04:58;;;;;;;11.37;4.97;;;14.20;99.90;;;;;;5051685;28;20862;-66
2023/08/28 05:07:27;;;;;;;12.87;4.60;;;14.20;99.90;;;;;;5052370;28;20837;-65
2023/08/28 05:09:55;;;;;;;10.70;4.37;;;14.30;99.90;;;;;;5051938;28;20454;-65
2023/08/28 05:12:23;;;;;;;9.70;3.53;;;14.50;99.90;;;;;;5053040;28;20442;-64
2023/08/28 05:14:51;;;;;;;11.30;3.53;;;14.40;99.90;;;;;;5051844;28;20471;-66
2023/08/28 05:17:19;;;;;;;9.47;3.87;;;14.40;99.90;;;;;;5051721;28;20550;-66
2023/08/28 05:19:47;;;;;;;9.40;4.33;;;14.40;99.90;;;;;;5034817;28;20458;-65
2023/08/28 05:22:15;;;;;;;9.57;5.07;;;14.50;99.90;;;;;;5031840;28;20443;-65
2023/08/28 05:24:44;;;;;;;12.50;4.90;;;14.50;99.90;;;;;;5048283;28;20448;-65
2023/08/28 05:27:12;;;;;;;11.77;5.50;;;14.60;99.90;;;;;;5051347;28;20494;-65
2023/08/28 05:29:40;;;;;;;11.10;5.40;;;14.50;99.90;;;;;;5051864;28;20507;-65
2023/08/28 05:32:08;;;;;;;11.33;5.30;;;14.50;99.90;;;;;;5051834;28;21276;-65
2023/08/28 05:34:36;;;;;;;12.23;5.30;;;14.40;99.90;;;;;;5048374;28;20447;-65
2023/08/28 05:37:04;;;;;;;11.73;5.67;;;14.40;99.90;;;;;;5032063;28;20501;-65
2023/08/28 05:39:32;;;;;;;10.00;4.50;;;14.40;99.90;;;;;;5031606;28;20446;-65
2023/08/28 05:42:01;;;;;;;14.80;5.13;;;14.40;99.90;;;;;;5031698;28;20453;-65
2023/08/28 05:44:29;;;;;;;11.87;5.00;;;14.60;99.90;;;;;;5030991;28;20443;-66
2023/08/28 05:46:57;;;;;;;10.87;4.47;;;14.70;99.90;;;;;;5031625;28;20495;-65
2023/08/28 05:49:25;;;;;;;8.80;3.40;;;14.70;99.90;;;;;;5031769;28;20470;-66
2023/08/28 05:51:54;;;;;;;11.73;3.50;;;14.70;99.90;;;;;;5032246;28;20472;-66
2023/08/28 05:54:22;;;;;;;10.10;4.30;;;14.80;99.90;;;;;;5048281;28;20449;-66
2023/08/28 05:56:50;;;;;;;8.53;3.90;;;14.80;99.90;;;;;;5050807;28;20563;-65
2023/08/28 05:59:19;;;;;;;9.60;3.90;;;14.90;99.90;;;;;;5051223;28;20448;-65
2023/08/28 06:01:47;;;;;;;9.60;4.20;;;14.80;99.90;;;;;;5051120;28;20442;-65
2023/08/28 06:04:15;;;;;;;10.13;4.27;;;14.70;99.90;;;;;;5050575;28;20817;-65
2023/08/28 06:06:43;;;;;;;8.80;3.43;;;14.60;99.90;;;;;;5050572;28;20574;-66
2023/08/28 06:09:11;;;;;;;9.33;3.73;;;14.60;99.90;;;;;;5050642;28;20951;-65
2023/08/28 06:11:41;;;;;;;10.07;4.83;;;14.60;99.90;;;;;;5051096;28;20480;-66
2023/08/28 06:14:09;;;;;;;10.97;4.70;;;14.60;99.90;;;;;;5050464;28;20446;-66
2023/08/28 06:16:38;;;;;;;10.20;5.17;;;14.60;99.90;;;;;;5050749;28;20512;-65
2023/08/28 06:19:06;;;;;;;10.97;4.90;;;14.60;99.90;;;;;;5049772;28;20499;-65
2023/08/28 06:21:34;;;;;;;14.27;6.63;;;14.70;99.90;;;;;;5030929;28;20508;-65
2023/08/28 06:24:02;;;;;;;11.63;5.70;;;14.70;99.90;;;;;;5043976;28;20549;-65
2023/08/28 06:26:30;;;;;;;13.97;6.60;;;14.80;99.90;;;;;;5050278;28;20464;-65
2023/08/28 06:28:58;;;;;;;12.90;6.27;;;14.90;99.90;;;;;;5045096;28;20459;-65
2023/08/28 06:31:25;;;;;;;10.97;6.03;;;14.90;99.90;;;;;;5049976;28;20444;-66
2023/08/28 06:33:55;;;;;;;11.40;5.87;;;15.00;99.90;;;;;;5050435;28;20440;-65
2023/08/28 06:36:23;;;;;;;12.17;6.03;;;15.10;99.90;;;;;;5035787;28;20481;-65
2023/08/28 06:38:52;;;;;;;11.93;6.03;;;15.20;99.90;;;;;;5050171;28;20441;-65
2023/08/28 06:41:20;;;;;;;15.70;7.43;;;15.40;99.90;;;;;;5050305;28;20530;-65
2023/08/28 06:43:48;;;;;;;12.20;5.33;;;15.50;99.90;;;;;;5048933;28;20454;-65
2023/08/28 06:46:16;;;;;;;9.73;5.83;;;15.60;99.90;;;;;;5049751;28;20542;-65
2023/08/28 06:48:44;;;;;;;12.10;7.23;;;15.50;99.90;;;;;;5049214;28;20931;-65
2023/08/28 06:51:14;;;;;;;12.30;6.60;;;15.60;99.90;;;;;;5050460;28;20868;-65
2023/08/28 06:53:42;;;;;;;12.23;7.30;;;15.60;99.90;;;;;;5050136;28;20821;-66
2023/08/28 06:56:10;;;;;;;16.87;8.30;;;15.50;99.90;;;;;;5050179;28;20521;-65
2023/08/28 06:58:38;;;;;;;14.50;10.03;;;15.40;99.90;;;;;;5049678;28;20452;-64
2023/08/28 07:01:06;;;;;;;13.47;7.40;;;15.40;99.90;;;;;;5050203;28;20468;-66
2023/08/28 07:03:34;;;;;;;11.80;6.70;;;15.40;99.90;;;;;;5049975;28;20954;-66
2023/08/28 07:06:02;;;;;;;12.50;7.27;;;15.30;99.90;;;;;;5055902;28;20458;-66
2023/08/28 07:08:31;;;;;;;11.67;6.80;;;15.30;99.90;;;;;;5049962;28;20475;-66
2023/08/28 07:10:59;;;;;;;12.00;7.50;;;15.30;99.90;;;;;;5049754;28;20437;-66
2023/08/28 07:13:27;;;;;;;14.17;7.80;;;15.20;99.90;;;;;;5048878;28;20456;-66
2023/08/28 07:15:55;;;;;;;11.90;7.23;;;15.30;99.90;;;;;;5049983;28;20478;-65
2023/08/28 07:18:23;;;;;;;13.80;7.67;;;15.30;99.90;;;;;;5049728;28;20547;-66
2023/08/28 07:20:51;;;;;;;11.67;6.40;;;15.50;99.90;;;;;;5049709;28;20440;-66
2023/08/28 07:23:19;;;;;;;14.20;6.43;;;15.70;99.90;;;;;;5049375;28;20449;-66
2023/08/28 07:25:48;;;;;;;11.83;6.43;;;15.60;99.90;;;;;;5049149;28;20455;-66
2023/08/28 07:28:16;;;;;;;10.77;6.90;;;15.60;99.90;;;;;;5049558;28;20443;-66
2023/08/28 07:30:44;;;;;;;11.57;6.47;;;15.50;99.90;;;;;;5049716;28;20790;-66
2023/08/28 07:33:12;;;;;;;11.80;6.13;;;15.50;99.90;;;;;;5049716;28;20472;-66
2023/08/28 07:35:44;;;;;;;12.20;6.63;;;15.50;99.90;;;;;;5055706;28;20505;-66
2023/08/28 07:38:13;;;;;;;13.10;6.03;;;15.50;99.90;;;;;;5042114;28;20528;-65
2023/08/28 07:40:41;;;;;;;10.57;6.03;;;15.50;99.90;;;;;;5048892;28;21143;-67
2023/08/28 07:43:10;;;;;;;11.63;5.90;;;15.50;99.90;;;;;;5049309;28;20483;-67
2023/08/28 07:45:38;;;;;;;11.10;4.83;;;15.40;99.90;;;;;;5049753;28;20540;-67
2023/08/28 07:48:08;;;;;;;10.80;5.23;;;15.40;99.90;;;;;;5049383;28;20453;-66
2023/08/28 07:50:36;;;;;;;9.50;5.07;;;15.40;99.90;;;;;;5040961;28;20536;-66
2023/08/28 07:53:04;;;;;;;10.17;5.10;;;15.50;99.90;;;;;;5029187;28;20473;-66
2023/08/28 07:55:33;;;;;;;9.40;4.97;;;15.50;99.90;;;;;;5029759;28;20836;-64
2023/08/28 07:58:05;;;;;;;9.30;5.07;;;15.60;99.90;;;;;;5029498;28;20573;-66
2023/08/28 08:00:35;;;;;;;10.20;4.43;;;15.80;99.90;;;;;;5029584;28;21043;-65
2023/08/28 08:03:04;;;;;;;9.47;4.87;;;16.10;99.90;;;;;;5048837;28;20968;-68
2023/08/28 08:05:32;;;;;;;10.47;4.93;;;16.30;99.90;;;;;;5053695;28;20472;-66
2023/08/28 08:08:00;;;;;;;9.27;4.00;;;16.40;99.90;;;;;;5050050;28;20452;-65
2023/08/28 08:10:28;;;;;;;11.50;4.07;;;16.40;99.90;;;;;;5049086;28;20452;-66
2023/08/28 08:12:56;;;;;;;8.63;3.87;;;16.40;99.90;;;;;;5049226;28;20450;-67
2023/08/28 08:15:24;;;;;;;9.13;4.37;;;16.40;99.90;;;;;;5049671;28;20448;-67
2023/08/28 08:17:55;;;;;;;9.73;3.50;;;16.40;99.90;;;;;;5048453;28;20484;-68
2023/08/28 08:20:23;;;;;;;7.93;3.50;;;16.50;99.90;;;;;;5049381;28;20801;-67
2023/08/28 08:22:52;;;;;;;9.30;3.03;;;16.60;99.90;;;;;;5048991;28;20844;-66
2023/08/28 08:25:23;;;;;;;7.80;3.00;;;16.80;99.90;;;;;;5045989;28;20524;-66
2023/08/28 08:27:51;;;;;;;8.60;3.40;;;16.80;99.90;;;;;;5029472;28;20551;-67
2023/08/28 08:30:19;;;;;;;7.57;3.10;;;16.80;99.90;;;;;;5029618;28;20454;-67
2023/08/28 08:32:48;;;;;;;8.70;3.23;;;16.80;99.90;;;;;;5039415;28;20509;-65
2023/08/28 08:35:17;;;;;;;13.33;3.37;;;17.00;99.90;;;;;;5051608;28;20985;-67
2023/08/28 08:37:47;;;;;;;10.93;3.60;;;17.00;99.90;;;;;;5042376;28;20490;-68
2023/08/28 08:40:18;;;;;;;7.97;3.07;;;17.10;99.90;;;;;;5050612;28;20443;-68
2023/08/28 08:42:46;;;;;;;10.50;2.93;;;17.10;99.90;;;;;;5051899;28;20559;-67
2023/08/28 08:45:14;;;;;;;8.33;3.00;;;17.10;99.90;;;;;;5052455;28;20446;-66
2023/08/28 08:47:47;;;;;;;8.33;2.93;;;17.00;99.90;;;;;;5052134;28;20470;-67
2023/08/28 08:50:19;;;;;;;9.03;2.40;;;17.10;99.90;;;;;;5052709;28;20439;-69
2023/08/28 08:52:48;;;;;;;7.90;2.77;;;17.40;99.90;;;;;;5052019;28;20440;-66
2023/08/28 08:55:24;;;;;;;8.17;2.30;;;17.50;99.90;;;;;;5051848;28;20455;-68
2023/08/28 08:57:55;;;;;;;8.47;2.40;;;17.40;99.90;;;;;;5052036;28;20530;-67
2023/08/28 09:00:23;;;;;;;9.87;2.80;;;17.20;99.90;;;;;;5051818;28;20451;-68
2023/08/28 09:02:53;;;;;;;13.47;4.20;;;16.80;99.90;;;;;;5051829;28;20440;-67
2023/08/28 09:05:23;;;;;;;7.27;2.60;;;16.80;99.90;;;;;;5055564;28;20475;-65
2023/08/28 09:07:53;;;;;;;8.10;2.27;;;16.90;99.90;;;;;;5052508;28;20846;-66
2023/08/28 09:10:21;;;;;;;7.67;2.17;;;16.80;99.90;;;;;;5039187;28;20956;-65
2023/08/28 09:12:49;;;;;;;9.87;2.50;;;17.00;99.90;;;;;;5045713;28;20507;-67
2023/08/28 09:15:18;;;;;;;7.47;2.50;;;17.40;99.90;;;;;;5049349;28;20452;-68
2023/08/28 09:17:46;;;;;;;8.87;1.90;;;17.70;99.90;;;;;;5050351;28;20555;-67
2023/08/28 09:20:18;;;;;;;12.30;2.87;;;18.10;99.90;;;;;;5050229;28;20447;-67
2023/08/28 09:22:49;;;;;;;6.60;1.40;;;18.30;99.90;;;;;;5050004;28;20443;-68
2023/08/28 09:25:22;;;;;;;8.80;1.80;;;18.30;99.90;;;;;;5050509;28;20443;-67
2023/08/28 09:27:53;;;;;;;6.60;1.40;;;17.90;99.90;;;;;;5050036;28;20505;-66
2023/08/28 09:30:29;;;;;;;7.47;2.07;;;17.70;99.90;;;;;;5050656;28;20444;-67
2023/08/28 09:32:59;;;;;;;11.17;1.80;;;17.60;99.90;;;;;;5049832;28;20443;-67
2023/08/28 09:35:28;;;;;;;9.50;2.10;;;17.40;99.90;;;;;;5054160;28;20443;-66
2023/08/28 09:38:01;;;;;;;10.27;2.70;;;17.30;99.90;;;;;;5051190;28;20512;-67
2023/08/28 09:40:31;;;;;;;7.00;1.90;;;17.30;99.90;;;;;;5050150;28;20534;-67
2023/08/28 09:43:00;;;;;;;6.90;1.50;;;17.40;99.90;;;;;;5048968;28;20452;-67
2023/08/28 09:45:33;;;;;;;7.63;1.60;;;17.50;99.90;;;;;;5049764;28;20840;-67
2023/08/28 09:48:04;;;;;;;7.33;1.60;;;17.70;99.90;;;;;;5049614;28;20471;-67
2023/08/28 09:50:34;;;;;;;7.90;2.07;;;17.70;99.90;;;;;;5041516;28;20838;-67
2023/08/28 09:53:11;;;;;;;6.70;1.47;;;17.70;99.90;;;;;;5029341;28;20860;-67
2023/08/28 09:55:40;;;;;;;7.33;1.53;;;17.60;99.90;;;;;;5030687;28;20558;-67
2023/08/28 09:58:09;;;;;;;8.50;1.50;;;17.30;99.90;;;;;;5043698;28;20479;-66
2023/08/28 10:00:39;;;;;;;7.70;1.63;;;17.30;99.90;;;;;;5048074;28;20452;-67
2023/08/28 10:03:08;;;;;;;6.70;1.30;;;17.50;99.90;;;;;;5042002;28;21078;-67
2023/08/28 10:05:38;;;;;;;6.40;1.20;;;17.60;99.90;;;;;;5057537;28;20963;-66
2023/08/28 10:08:07;;;;;;;6.37;1.33;;;17.80;99.90;;;;;;5057775;28;20470;-67
2023/08/28 10:10:37;;;;;;;6.60;1.30;;;17.90;99.90;;;;;;5065053;28;20940;-69
2023/08/28 10:13:08;;;;;;;7.50;1.43;;;18.00;99.90;;;;;;5069045;28;20499;-65
2023/08/28 10:15:42;;;;;;;9.50;1.50;;;18.10;99.90;;;;;;5069504;28;20441;-67
2023/08/28 10:18:21;;;;;;;8.40;1.60;;;18.30;99.90;;;;;;5062984;28;20479;-66
2023/08/28 10:20:49;;;;;;;8.70;1.50;;;18.50;99.90;;;;;;5049406;28;20447;-67
2023/08/28 10:23:20;;;;;;;7.53;1.13;;;18.50;99.90;;;;;;5048656;28;20470;-65
2023/08/28 10:25:52;;;;;;;9.90;1.67;;;18.30;99.90;;;;;;5049106;28;20448;-65
2023/08/28 10:28:21;;;;;;;9.50;1.27;;;18.20;99.90;;;;;;5049140;28;20467;-66
2023/08/28 10:30:51;;;;;;;6.40;1.13;;;18.40;99.90;;;;;;5048957;28;20474;-66
2023/08/28 10:33:20;;;;;;;6.53;1.10;;;18.70;99.90;;;;;;5033431;28;20463;-66
2023/08/28 10:35:51;;;;;;;6.93;1.27;;;19.10;99.90;;;;;;5042119;28;20447;-66
2023/08/28 10:38:20;;;;;;;9.93;1.27;;;19.50;99.90;;;;;;5048204;28;20542;-65
2023/08/28 10:40:54;;;;;;;7.93;1.40;;;19.50;99.90;;;;;;5048599;28;20459;-66
2023/08/28 10:43:24;;;;;;;6.10;1.00;;;19.10;99.90;;;;;;5048254;28;20535;-66
2023/08/28 10:45:55;;;;;;;7.27;1.20;;;18.90;99.90;;;;;;5047712;28;20509;-66
2023/08/28 10:48:23;;;;;;;7.33;1.37;;;19.00;99.90;;;;;;5048507;28;20440;-65
2023/08/28 10:50:56;;;;;;;7.40;1.43;;;19.10;99.90;;;;;;5048390;28;20444;-66
2023/08/28 10:53:25;;;;;;;7.23;1.33;;;19.20;99.90;;;;;;5048376;28;21001;-65
2023/08/28 10:55:56;;;;;;;7.40;1.33;;;19.70;99.90;;;;;;5048224;28;20560;-65
2023/08/28 10:58:24;;;;;;;6.70;1.00;;;19.90;99.90;;;;;;5048244;28;20507;-67
2023/08/28 11:01:11;;;;;;;7.27;1.50;;;19.90;99.90;;;;;;5035800;28;20476;-66
2023/08/28 11:03:56;;;;;;;7.77;1.33;;;19.90;99.90;;;;;;5027124;28;20448;-65
2023/08/28 11:06:39;;;;;;;6.97;1.40;;;19.70;99.90;;;;;;5033780;28;20464;-66
2023/08/28 11:09:36;;;;;;;7.17;1.23;;;19.90;99.90;;;;;;5044021;28;20976;-67
2023/08/28 11:12:25;;;;;;;7.23;1.30;;;20.10;99.90;;;;;;5050838;28;20570;-66
2023/08/28 11:15:00;;;;;;;7.30;1.23;;;19.90;99.90;;;;;;5037265;28;20448;-67
2023/08/28 11:17:31;;;;;;;6.90;1.33;;;19.90;99.90;;;;;;5038766;28;20456;-66
2023/08/28 11:20:12;;;;;;;8.50;1.20;;;20.20;99.90;;;;;;5046176;28;20480;-67
2023/08/28 11:22:42;;;;;;;6.43;1.20;;;20.10;99.90;;;;;;5046089;28;20452;-67
2023/08/28 11:25:12;;;;;;;6.40;1.20;;;20.00;99.90;;;;;;5052079;28;20498;-67
2023/08/28 11:27:47;;;;;;;6.17;1.30;;;19.50;99.90;;;;;;5035304;28;20476;-66
2023/08/28 11:30:16;;;;;;;7.83;1.43;;;19.30;99.90;;;;;;5034953;28;20472;-67
2023/08/28 11:32:46;;;;;;;7.10;1.17;;;19.20;99.90;;;;;;5036584;28;20765;-67
2023/08/28 11:35:16;;;;;;;7.20;1.90;;;19.20;99.90;;;;;;5040250;28;21004;-67
2023/08/28 11:37:48;;;;;;;6.30;1.20;;;19.20;99.90;;;;;;5040182;28;20471;-67
2023/08/28 11:40:19;;;;;;;6.63;1.43;;;19.20;99.90;;;;;;5047210;28;20443;-69
2023/08/28 11:42:49;;;;;;;6.77;1.40;;;19.20;99.90;;;;;;5045403;28;20437;-65
2023/08/28 11:45:21;;;;;;;10.63;1.70;;;19.00;99.90;;;;;;5041387;28;20447;-66
2023/08/28 11:47:53;;;;;;;8.77;2.10;;;19.00;99.90;;;;;;5053867;28;20455;-66
2023/08/28 11:50:21;;;;;;;8.33;1.40;;;19.00;99.90;;;;;;5037024;28;20436;-65
2023/08/28 11:52:50;;;;;;;6.67;1.40;;;19.00;99.90;;;;;;5036184;28;20467;-66
2023/08/28 11:55:19;;;;;;;7.67;2.33;;;19.20;99.90;;;;;;5037311;28;20448;-66
2023/08/28 11:57:50;;;;;;;6.53;1.43;;;19.20;99.90;;;;;;5047993;28;20456;-66
2023/08/28 12:00:19;;;;;;;6.43;1.60;;;19.20;99.90;;;;;;5037755;28;20534;-66
2023/08/28 12:02:48;;;;;;;6.50;1.40;;;19.10;99.90;;;;;;5037753;28;20480;-66
2023/08/28 12:05:16;;;;;;;7.23;1.50;;;18.90;99.90;;;;;;5047258;28;20749;-66
2023/08/28 12:07:46;;;;;;;6.40;1.30;;;18.80;99.90;;;;;;5047858;28;20448;-66
2023/08/28 12:10:16;;;;;;;10.13;1.97;;;18.80;99.90;;;;;;5041716;28;20452;-66
2023/08/28 12:12:46;;;;;;;7.90;1.40;;;18.60;99.90;;;;;;5044837;28;20937;-67
2023/08/28 12:15:15;;;;;;;7.23;1.33;;;18.50;99.90;;;;;;5056732;28;20449;-65
2023/08/28 12:17:46;;;;;;;7.20;1.67;;;18.40;99.90;;;;;;5031117;28;20538;-66
2023/08/28 12:20:19;;;;;;;6.60;1.30;;;18.40;99.90;;;;;;5046759;28;20483;-66
2023/08/28 12:22:47;;;;;;;9.17;2.27;;;18.30;99.90;;;;;;5045143;28;20874;-66
2023/08/28 12:25:15;;;;;;;8.00;1.23;;;18.10;99.90;;;;;;5051188;28;20503;-66
2023/08/28 12:27:43;;;;;;;6.50;1.50;;;18.00;99.90;;;;;;5061554;28;20490;-66
2023/08/28 12:30:20;;;;;;;7.10;1.30;;;17.90;99.90;;;;;;5040637;28;20444;-65
2023/08/28 12:32:53;;;;;;;7.07;1.60;;;17.90;99.90;;;;;;5050297;28;20454;-66
2023/08/28 12:35:22;;;;;;;7.20;1.80;;;17.90;99.90;;;;;;5056195;28;20524;-66
2023/08/28 12:37:51;;;;;;;7.20;1.33;;;17.90;99.90;;;;;;5063792;28;20493;-66
2023/08/28 12:40:19;;;;;;;6.47;1.27;;;17.70;99.90;;;;;;5069103;28;20481;-66
2023/08/28 12:42:47;;;;;;;6.30;1.40;;;17.60;99.90;;;;;;5034867;28;20438;-66
2023/08/28 12:45:15;;;;;;;7.17;1.47;;;17.60;99.90;;;;;;5044425;28;20443;-65
2023/08/28 12:47:45;;;;;;;8.20;1.50;;;17.60;99.90;;;;;;5039770;28;20741;-66
2023/08/28 12:50:13;;;;;;;8.10;1.60;;;17.60;99.90;;;;;;5040859;28;20440;-65
2023/08/28 12:52:45;;;;;;;9.30;1.60;;;17.60;99.90;;;;;;5040190;28;20522;-65
2023/08/28 12:55:13;;;;;;;8.00;1.67;;;17.60;99.90;;;;;;5042194;28;20905;-65